sensor_id;sensor_type;location;lat;lon;timestamp;pressure;altitude;pressure_sealevel;temperature;humidity
7052;BME280;3567;52.444;13.556;2023-06-01T00:00:48;101508.00;;;12.84;78.35
7052;BME280;3567;52.444;13.556;2023-06-01T00:03:14;101501.66;;;12.78;78.58
7052;BME280;3567;52.444;13.556;2023-06-01T00:05:40;101508.28;;;12.76;79.21
7052;BME280;3567;52.444;13.556;2023-06-01T00:08:06;101512.84;;;12.75;79.79
7052;BME280;3567;52.444;13.556;2023-06-01T00:10:32;101509.78;;;12.72;79.76
7052;BME280;3567;52.444;13.556;2023-06-01T00:12:58;101506.75;;;12.68;80.08
7052;BME280;3567;52.444;13.556;2023-06-01T00:15:23;101504.25;;;12.67;80.50
7052;BME280;3567;52.444;13.556;2023-06-01T00:17:49;101519.13;;;12.69;81.26
7052;BME280;3567;52.444;13.556;2023-06-01T00:20:17;101512.47;;;12.72;81.53
7052;BME280;3567;52.444;13.556;2023-06-01T00:22:43;101506.66;;;12.75;82.17
7052;BME280;3567;52.444;13.556;2023-06-01T00:25:08;101503.75;;;12.76;82.32
7052;BME280;3567;52.444;13.556;2023-06-01T00:27:35;101504.34;;;12.78;82.62
7052;BME280;3567;52.444;13.556;2023-06-01T00:30:01;101503.31;;;12.79;82.51
7052;BME280;3567;52.444;13.556;2023-06-01T00:32:26;101504.72;;;12.82;82.98
7052;BME280;3567;52.444;13.556;2023-06-01T00:34:51;101509.84;;;12.83;83.03
7052;BME280;3567;52.444;13.556;2023-06-01T00:37:17;101508.59;;;12.86;83.45
7052;BME280;3567;52.444;13.556;2023-06-01T00:39:42;101508.16;;;12.89;83.41
7052;BME280;3567;52.444;13.556;2023-06-01T00:42:07;101496.34;;;12.90;84.36
7052;BME280;3567;52.444;13.556;2023-06-01T00:44:33;101508.16;;;12.89;85.48
7052;BME280;3567;52.444;13.556;2023-06-01T00:46:59;101510.00;;;12.89;85.29
7052;BME280;3567;52.444;13.556;2023-06-01T00:49:25;101509.19;;;12.88;86.48
7052;BME280;3567;52.444;13.556;2023-06-01T00:51:51;101507.78;;;12.85;86.32
7052;BME280;3567;52.444;13.556;2023-06-01T00:54:17;101497.47;;;12.82;85.97
7052;BME280;3567;52.444;13.556;2023-06-01T00:56:43;101503.66;;;12.83;85.51
7052;BME280;3567;52.444;13.556;2023-06-01T00:59:08;101491.25;;;12.82;85.75
7052;BME280;3567;52.444;13.556;2023-06-01T01:01:34;101496.63;;;12.82;86.18
7052;BME280;3567;52.444;13.556;2023-06-01T01:04:01;101500.38;;;12.81;87.17
7052;BME280;3567;52.444;13.556;2023-06-01T01:06:28;101502.47;;;12.79;88.15
7052;BME280;3567;52.444;13.556;2023-06-01T01:09:12;101499.66;;;12.74;87.89
7052;BME280;3567;52.444;13.556;2023-06-01T01:11:41;101499.25;;;12.70;88.12
7052;BME280;3567;52.444;13.556;2023-06-01T01:14:22;101499.94;;;12.66;88.62
7052;BME280;3567;52.444;13.556;2023-06-01T01:17:15;101504.91;;;12.62;89.17
7052;BME280;3567;52.444;13.556;2023-06-01T01:19:58;101492.75;;;12.59;88.66
7052;BME280;3567;52.444;13.556;2023-06-01T01:28:07;101499.34;;;12.64;90.48
7052;BME280;3567;52.444;13.556;2023-06-01T01:30:36;101491.88;;;12.66;89.86
7052;BME280;3567;52.444;13.556;2023-06-01T01:33:03;101495.16;;;12.68;90.06
7052;BME280;3567;52.444;13.556;2023-06-01T01:35:29;101496.34;;;12.72;90.34
7052;BME280;3567;52.444;13.556;2023-06-01T01:37:55;101492.16;;;12.76;90.72
7052;BME280;3567;52.444;13.556;2023-06-01T01:40:21;101500.81;;;12.78;91.56
7052;BME280;3567;52.444;13.556;2023-06-01T01:42:48;101494.41;;;12.79;91.49
7052;BME280;3567;52.444;13.556;2023-06-01T01:45:15;101498.38;;;12.76;91.79
7052;BME280;3567;52.444;13.556;2023-06-01T01:47:49;101499.66;;;12.74;92.07
7052;BME280;3567;52.444;13.556;2023-06-01T01:50:18;101488.50;;;12.70;92.95
7052;BME280;3567;52.444;13.556;2023-06-01T01:52:46;101481.13;;;12.66;91.88
7052;BME280;3567;52.444;13.556;2023-06-01T01:55:14;101492.34;;;12.63;91.88
7052;BME280;3567;52.444;13.556;2023-06-01T01:57:41;101484.13;;;12.57;91.49
7052;BME280;3567;52.444;13.556;2023-06-01T02:00:07;101476.72;;;12.53;92.35
7052;BME280;3567;52.444;13.556;2023-06-01T02:02:33;101485.44;;;12.48;92.03
7052;BME280;3567;52.444;13.556;2023-06-01T02:04:58;101482.59;;;12.43;92.12
7052;BME280;3567;52.444;13.556;2023-06-01T02:07:23;101481.63;;;12.38;92.21
7052;BME280;3567;52.444;13.556;2023-06-01T02:09:49;101475.03;;;12.33;92.83
7052;BME280;3567;52.444;13.556;2023-06-01T02:12:14;101482.94;;;12.28;92.45
7052;BME280;3567;52.444;13.556;2023-06-01T02:14:40;101480.91;;;12.24;93.21
7052;BME280;3567;52.444;13.556;2023-06-01T02:17:06;101483.44;;;12.19;93.25
7052;BME280;3567;52.444;13.556;2023-06-01T02:19:32;101485.16;;;12.13;93.72
7052;BME280;3567;52.444;13.556;2023-06-01T02:21:58;101478.38;;;12.11;94.23
7052;BME280;3567;52.444;13.556;2023-06-01T02:24:23;101480.91;;;12.05;93.83
7052;BME280;3567;52.444;13.556;2023-06-01T02:26:48;101479.44;;;12.03;93.96
7052;BME280;3567;52.444;13.556;2023-06-01T02:29:17;101478.81;;;12.07;95.08
7052;BME280;3567;52.444;13.556;2023-06-01T02:31:45;101476.59;;;12.23;94.88
7052;BME280;3567;52.444;13.556;2023-06-01T02:34:10;101480.81;;;12.37;94.48
7052;BME280;3567;52.444;13.556;2023-06-01T02:36:36;101481.31;;;12.46;94.66
7052;BME280;3567;52.444;13.556;2023-06-01T02:39:01;101473.88;;;12.48;94.86
7052;BME280;3567;52.444;13.556;2023-06-01T02:41:27;101478.44;;;12.47;94.41
7052;BME280;3567;52.444;13.556;2023-06-01T02:43:52;101477.97;;;12.50;94.50
7052;BME280;3567;52.444;13.556;2023-06-01T02:46:18;101473.38;;;12.57;94.27
7052;BME280;3567;52.444;13.556;2023-06-01T02:48:44;101469.16;;;12.62;94.03
7052;BME280;3567;52.444;13.556;2023-06-01T02:51:10;101472.81;;;12.67;94.86
7052;BME280;3567;52.444;13.556;2023-06-01T02:53:35;101474.63;;;12.73;94.41
7052;BME280;3567;52.444;13.556;2023-06-01T02:56:01;101467.31;;;12.80;94.19
7052;BME280;3567;52.444;13.556;2023-06-01T02:58:26;101465.13;;;12.89;93.75
7052;BME280;3567;52.444;13.556;2023-06-01T03:00:55;101468.47;;;13.03;93.37
7052;BME280;3567;52.444;13.556;2023-06-01T03:03:20;101472.88;;;13.16;93.11
7052;BME280;3567;52.444;13.556;2023-06-01T03:05:46;101464.06;;;13.27;92.67
7052;BME280;3567;52.444;13.556;2023-06-01T03:08:13;101458.31;;;13.35;92.56
7052;BME280;3567;52.444;13.556;2023-06-01T03:10:38;101473.34;;;13.43;92.52
7052;BME280;3567;52.444;13.556;2023-06-01T03:13:05;101462.47;;;13.49;92.07
7052;BME280;3567;52.444;13.556;2023-06-01T03:15:30;101461.78;;;13.54;91.50
7052;BME280;3567;52.444;13.556;2023-06-01T03:17:56;101465.19;;;13.61;91.40
7052;BME280;3567;52.444;13.556;2023-06-01T03:20:21;101468.25;;;13.65;91.22
7052;BME280;3567;52.444;13.556;2023-06-01T03:22:47;101473.16;;;13.68;90.90
7052;BME280;3567;52.444;13.556;2023-06-01T03:25:13;101471.06;;;13.70;90.58
7052;BME280;3567;52.444;13.556;2023-06-01T03:27:39;101475.97;;;13.73;90.46
7052;BME280;3567;52.444;13.556;2023-06-01T03:30:05;101476.78;;;13.73;90.98
7052;BME280;3567;52.444;13.556;2023-06-01T03:32:38;101478.22;;;13.76;90.53
7052;BME280;3567;52.444;13.556;2023-06-01T03:35:05;101482.53;;;13.77;90.96
7052;BME280;3567;52.444;13.556;2023-06-01T03:37:34;101474.22;;;13.78;90.74
7052;BME280;3567;52.444;13.556;2023-06-01T03:40:00;101474.59;;;13.82;90.48
7052;BME280;3567;52.444;13.556;2023-06-01T03:42:26;101477.28;;;13.82;90.63
7052;BME280;3567;52.444;13.556;2023-06-01T03:44:51;101473.16;;;13.79;90.64
7052;BME280;3567;52.444;13.556;2023-06-01T03:47:17;101472.59;;;13.77;90.81
7052;BME280;3567;52.444;13.556;2023-06-01T03:49:42;101475.53;;;13.76;91.15
7052;BME280;3567;52.444;13.556;2023-06-01T03:52:08;101480.44;;;13.79;91.02
7052;BME280;3567;52.444;13.556;2023-06-01T03:54:33;101471.31;;;13.80;90.44
7052;BME280;3567;52.444;13.556;2023-06-01T03:56:59;101473.53;;;13.83;90.63
7052;BME280;3567;52.444;13.556;2023-06-01T03:59:25;101467.09;;;13.84;90.80
7052;BME280;3567;52.444;13.556;2023-06-01T04:01:51;101470.41;;;13.86;90.91
7052;BME280;3567;52.444;13.556;2023-06-01T04:04:17;101461.25;;;13.87;91.21
7052;BME280;3567;52.444;13.556;2023-06-01T04:06:44;101465.59;;;13.88;91.01
7052;BME280;3567;52.444;13.556;2023-06-01T04:09:11;101470.72;;;13.89;91.36
7052;BME280;3567;52.444;13.556;2023-06-01T04:11:38;101461.00;;;13.88;90.89
7052;BME280;3567;52.444;13.556;2023-06-01T04:14:04;101470.53;;;13.91;91.28
7052;BME280;3567;52.444;13.556;2023-06-01T04:16:30;101461.38;;;13.92;91.29
7052;BME280;3567;52.444;13.556;2023-06-01T04:18:55;101474.38;;;13.95;91.20
7052;BME280;3567;52.444;13.556;2023-06-01T04:21:21;101472.28;;;13.97;91.03
7052;BME280;3567;52.444;13.556;2023-06-01T04:23:47;101462.56;;;13.96;91.10
7052;BME280;3567;52.444;13.556;2023-06-01T04:26:12;101466.88;;;13.97;91.45
7052;BME280;3567;52.444;13.556;2023-06-01T04:28:37;101465.72;;;13.93;91.54
7052;BME280;3567;52.444;13.556;2023-06-01T04:31:09;101470.28;;;13.93;91.17
7052;BME280;3567;52.444;13.556;2023-06-01T04:33:43;101465.25;;;13.96;90.95
7052;BME280;3567;52.444;13.556;2023-06-01T04:36:12;101467.22;;;14.01;91.07
7052;BME280;3567;52.444;13.556;2023-06-01T04:38:40;101472.16;;;14.04;91.22
7052;BME280;3567;52.444;13.556;2023-06-01T04:41:07;101470.03;;;14.06;90.97
7052;BME280;3567;52.444;13.556;2023-06-01T04:43:36;101468.75;;;14.08;91.53
7052;BME280;3567;52.444;13.556;2023-06-01T04:46:03;101464.19;;;14.21;91.19
7052;BME280;3567;52.444;13.556;2023-06-01T04:48:30;101476.72;;;14.27;90.96
7052;BME280;3567;52.444;13.556;2023-06-01T04:51:00;101478.97;;;14.30;90.51
7052;BME280;3567;52.444;13.556;2023-06-01T04:53:26;101482.00;;;14.33;90.04
7052;BME280;3567;52.444;13.556;2023-06-01T04:55:52;101473.56;;;14.41;90.01
7052;BME280;3567;52.444;13.556;2023-06-01T04:58:19;101477.44;;;14.46;89.76
7052;BME280;3567;52.444;13.556;2023-06-01T05:00:45;101473.44;;;14.48;89.52
7052;BME280;3567;52.444;13.556;2023-06-01T05:03:11;101476.75;;;14.50;89.30
7052;BME280;3567;52.444;13.556;2023-06-01T05:05:37;101474.84;;;14.39;89.28
7052;BME280;3567;52.444;13.556;2023-06-01T05:08:03;101477.78;;;14.26;90.22
7052;BME280;3567;52.444;13.556;2023-06-01T05:10:30;101478.84;;;14.25;90.42
7052;BME280;3567;52.444;13.556;2023-06-01T05:12:55;101478.72;;;14.31;91.13
7052;BME280;3567;52.444;13.556;2023-06-01T05:15:21;101478.38;;;14.28;90.56
7052;BME280;3567;52.444;13.556;2023-06-01T05:17:47;101482.84;;;14.34;91.06
7052;BME280;3567;52.444;13.556;2023-06-01T05:20:13;101480.47;;;14.26;90.57
7052;BME280;3567;52.444;13.556;2023-06-01T05:22:38;101480.34;;;14.09;91.00
7052;BME280;3567;52.444;13.556;2023-06-01T05:25:04;101480.34;;;13.97;91.21
7052;BME280;3567;52.444;13.556;2023-06-01T05:27:31;101491.25;;;13.91;92.10
7052;BME280;3567;52.444;13.556;2023-06-01T05:29:56;101491.69;;;13.76;91.98
7052;BME280;3567;52.444;13.556;2023-06-01T05:32:21;101490.00;;;13.63;92.59
7052;BME280;3567;52.444;13.556;2023-06-01T05:34:47;101490.78;;;13.52;92.78
7052;BME280;3567;52.444;13.556;2023-06-01T05:37:12;101484.25;;;13.48;92.81
7052;BME280;3567;52.444;13.556;2023-06-01T05:39:37;101489.25;;;13.44;93.22
7052;BME280;3567;52.444;13.556;2023-06-01T05:42:03;101494.03;;;13.42;93.83
7052;BME280;3567;52.444;13.556;2023-06-01T05:44:30;101500.13;;;13.38;93.82
7052;BME280;3567;52.444;13.556;2023-06-01T05:46:56;101493.91;;;13.37;93.88
7052;BME280;3567;52.444;13.556;2023-06-01T05:49:21;101500.19;;;13.31;93.57
7052;BME280;3567;52.444;13.556;2023-06-01T05:51:46;101503.72;;;13.13;94.94
7052;BME280;3567;52.444;13.556;2023-06-01T05:54:12;101508.16;;;12.89;95.62
7052;BME280;3567;52.444;13.556;2023-06-01T05:56:37;101507.25;;;12.77;95.97
7052;BME280;3567;52.444;13.556;2023-06-01T05:59:03;101512.84;;;12.75;96.31
7052;BME280;3567;52.444;13.556;2023-06-01T06:01:29;101513.00;;;12.80;96.07
7052;BME280;3567;52.444;13.556;2023-06-01T06:03:55;101511.13;;;12.81;96.27
7052;BME280;3567;52.444;13.556;2023-06-01T06:06:20;101512.34;;;12.85;96.46
7052;BME280;3567;52.444;13.556;2023-06-01T06:08:47;101500.22;;;12.94;95.90
7052;BME280;3567;52.444;13.556;2023-06-01T06:11:12;101501.41;;;12.98;95.76
7052;BME280;3567;52.444;13.556;2023-06-01T06:13:38;101514.34;;;12.90;95.99
7052;BME280;3567;52.444;13.556;2023-06-01T06:16:03;101507.53;;;12.87;96.03
7052;BME280;3567;52.444;13.556;2023-06-01T06:18:29;101502.31;;;12.92;95.54
7052;BME280;3567;52.444;13.556;2023-06-01T06:20:54;101510.53;;;12.97;95.05
7052;BME280;3567;52.444;13.556;2023-06-01T06:23:19;101510.25;;;13.05;95.02
7052;BME280;3567;52.444;13.556;2023-06-01T06:25:46;101505.72;;;13.18;93.94
7052;BME280;3567;52.444;13.556;2023-06-01T06:28:11;101501.72;;;13.27;93.02
7052;BME280;3567;52.444;13.556;2023-06-01T06:30:36;101509.16;;;13.43;92.27
7052;BME280;3567;52.444;13.556;2023-06-01T06:33:02;101493.97;;;13.60;91.95
7052;BME280;3567;52.444;13.556;2023-06-01T06:35:27;101495.88;;;13.72;89.86
7052;BME280;3567;52.444;13.556;2023-06-01T06:37:53;101495.31;;;13.81;89.90
7052;BME280;3567;52.444;13.556;2023-06-01T06:40:18;101496.25;;;13.87;89.04
7052;BME280;3567;52.444;13.556;2023-06-01T06:42:45;101499.53;;;14.01;88.76
7052;BME280;3567;52.444;13.556;2023-06-01T06:45:11;101498.84;;;14.05;88.03
7052;BME280;3567;52.444;13.556;2023-06-01T06:47:36;101501.78;;;14.04;87.68
7052;BME280;3567;52.444;13.556;2023-06-01T06:50:02;101502.38;;;14.06;87.56
7052;BME280;3567;52.444;13.556;2023-06-01T06:52:27;101491.94;;;14.09;87.20
7052;BME280;3567;52.444;13.556;2023-06-01T06:54:53;101500.66;;;14.11;86.46
7052;BME280;3567;52.444;13.556;2023-06-01T06:57:18;101493.72;;;14.27;86.18
7052;BME280;3567;52.444;13.556;2023-06-01T06:59:43;101501.69;;;14.34;85.49
7052;BME280;3567;52.444;13.556;2023-06-01T07:02:08;101498.88;;;14.40;85.19
7052;BME280;3567;52.444;13.556;2023-06-01T07:04:34;101493.47;;;14.40;84.72
7052;BME280;3567;52.444;13.556;2023-06-01T07:06:59;101496.06;;;14.35;84.30
7052;BME280;3567;52.444;13.556;2023-06-01T07:09:26;101493.63;;;14.34;83.66
7052;BME280;3567;52.444;13.556;2023-06-01T07:11:51;101490.56;;;14.30;82.55
7052;BME280;3567;52.444;13.556;2023-06-01T07:14:17;101494.06;;;14.19;82.73
7052;BME280;3567;52.444;13.556;2023-06-01T07:16:42;101492.56;;;14.11;83.26
7052;BME280;3567;52.444;13.556;2023-06-01T07:19:08;101491.47;;;14.01;82.98
7052;BME280;3567;52.444;13.556;2023-06-01T07:21:33;101494.19;;;14.12;83.59
7052;BME280;3567;52.444;13.556;2023-06-01T07:23:59;101495.13;;;14.18;83.00
7052;BME280;3567;52.444;13.556;2023-06-01T07:26:24;101496.66;;;14.26;82.84
7052;BME280;3567;52.444;13.556;2023-06-01T07:28:52;101497.13;;;14.34;83.06
7052;BME280;3567;52.444;13.556;2023-06-01T07:31:19;101496.31;;;14.34;81.52
7052;BME280;3567;52.444;13.556;2023-06-01T07:33:45;101500.16;;;14.26;80.90
7052;BME280;3567;52.444;13.556;2023-06-01T07:36:10;101493.13;;;14.25;81.18
7052;BME280;3567;52.444;13.556;2023-06-01T07:38:36;101494.19;;;14.24;81.31
7052;BME280;3567;52.444;13.556;2023-06-01T07:41:02;101487.41;;;14.33;81.57
7052;BME280;3567;52.444;13.556;2023-06-01T07:43:27;101490.91;;;14.46;81.68
7052;BME280;3567;52.444;13.556;2023-06-01T07:45:53;101493.38;;;14.71;81.36
7052;BME280;3567;52.444;13.556;2023-06-01T07:48:19;101488.00;;;14.99;79.57
7052;BME280;3567;52.444;13.556;2023-06-01T07:50:44;101487.63;;;15.07;78.94
7052;BME280;3567;52.444;13.556;2023-06-01T07:53:10;101488.47;;;15.08;78.94
7052;BME280;3567;52.444;13.556;2023-06-01T07:55:35;101491.94;;;15.20;78.85
7052;BME280;3567;52.444;13.556;2023-06-01T07:58:01;101483.78;;;15.32;78.11
7052;BME280;3567;52.444;13.556;2023-06-01T08:00:26;101480.34;;;15.36;78.24
7052;BME280;3567;52.444;13.556;2023-06-01T08:02:52;101478.19;;;15.50;78.03
7052;BME280;3567;52.444;13.556;2023-06-01T08:05:18;101479.09;;;15.56;77.64
7052;BME280;3567;52.444;13.556;2023-06-01T08:07:44;101476.22;;;15.62;76.93
7052;BME280;3567;52.444;13.556;2023-06-01T08:10:11;101465.63;;;15.73;76.19
7052;BME280;3567;52.444;13.556;2023-06-01T08:12:38;101470.94;;;15.84;75.91
7052;BME280;3567;52.444;13.556;2023-06-01T08:15:04;101466.53;;;15.95;76.02
7052;BME280;3567;52.444;13.556;2023-06-01T08:17:29;101468.81;;;16.03;74.55
7052;BME280;3567;52.444;13.556;2023-06-01T08:19:55;101461.69;;;15.97;75.28
7052;BME280;3567;52.444;13.556;2023-06-01T08:22:22;101471.19;;;16.00;75.12
7052;BME280;3567;52.444;13.556;2023-06-01T08:24:48;101463.66;;;16.02;74.69
7052;BME280;3567;52.444;13.556;2023-06-01T08:27:16;101468.13;;;16.13;75.06
7052;BME280;3567;52.444;13.556;2023-06-01T08:29:43;101467.66;;;16.16;74.01
7052;BME280;3567;52.444;13.556;2023-06-01T08:32:09;101464.69;;;16.17;74.00
7052;BME280;3567;52.444;13.556;2023-06-01T08:34:35;101459.44;;;16.28;73.87
7052;BME280;3567;52.444;13.556;2023-06-01T08:37:02;101464.59;;;16.29;73.02
7052;BME280;3567;52.444;13.556;2023-06-01T08:39:27;101460.41;;;16.38;74.04
7052;BME280;3567;52.444;13.556;2023-06-01T08:44:26;101456.97;;;16.43;71.45
7052;BME280;3567;52.444;13.556;2023-06-01T08:46:54;101446.28;;;16.53;71.19
7052;BME280;3567;52.444;13.556;2023-06-01T08:49:20;101458.31;;;16.62;70.76
7052;BME280;3567;52.444;13.556;2023-06-01T08:51:48;101451.97;;;16.73;69.58
7052;BME280;3567;52.444;13.556;2023-06-01T08:54:16;101447.19;;;16.81;69.34
7052;BME280;3567;52.444;13.556;2023-06-01T08:56:41;101448.59;;;16.83;69.10
7052;BME280;3567;52.444;13.556;2023-06-01T08:59:09;101440.69;;;16.82;68.18
7052;BME280;3567;52.444;13.556;2023-06-01T09:01:37;101441.56;;;16.87;69.17
7052;BME280;3567;52.444;13.556;2023-06-01T09:04:03;101440.81;;;16.92;69.79
7052;BME280;3567;52.444;13.556;2023-06-01T09:06:28;101435.38;;;17.14;68.55
7052;BME280;3567;52.444;13.556;2023-06-01T09:08:54;101431.69;;;17.25;66.51
7052;BME280;3567;52.444;13.556;2023-06-01T09:11:19;101428.84;;;17.37;67.68
7052;BME280;3567;52.444;13.556;2023-06-01T09:13:45;101428.13;;;17.51;67.03
7052;BME280;3567;52.444;13.556;2023-06-01T09:16:10;101424.75;;;17.66;66.59
7052;BME280;3567;52.444;13.556;2023-06-01T09:18:50;101420.50;;;17.75;65.98
7052;BME280;3567;52.444;13.556;2023-06-01T09:21:16;101418.19;;;17.94;65.68
7052;BME280;3567;52.444;13.556;2023-06-01T09:23:42;101413.66;;;18.05;65.10
7052;BME280;3567;52.444;13.556;2023-06-01T09:26:14;101422.47;;;18.27;64.20
7052;BME280;3567;52.444;13.556;2023-06-01T09:28:56;101413.63;;;18.52;62.57
7052;BME280;3567;52.444;13.556;2023-06-01T09:31:41;101403.88;;;18.56;62.43
7052;BME280;3567;52.444;13.556;2023-06-01T09:34:08;101406.41;;;18.68;62.49
7052;BME280;3567;52.444;13.556;2023-06-01T09:36:35;101402.63;;;18.79;62.79
7052;BME280;3567;52.444;13.556;2023-06-01T09:39:06;101398.03;;;18.90;61.27
7052;BME280;3567;52.444;13.556;2023-06-01T09:41:57;101389.38;;;18.88;60.82
7052;BME280;3567;52.444;13.556;2023-06-01T09:44:27;101398.88;;;18.86;60.74
7052;BME280;3567;52.444;13.556;2023-06-01T09:46:57;101397.81;;;18.97;61.13
7052;BME280;3567;52.444;13.556;2023-06-01T09:49:25;101386.97;;;19.02;59.20
7052;BME280;3567;52.444;13.556;2023-06-01T09:51:52;101383.97;;;19.03;59.05
7052;BME280;3567;52.444;13.556;2023-06-01T09:54:27;101383.69;;;19.00;56.97
7052;BME280;3567;52.444;13.556;2023-06-01T09:56:54;101382.84;;;18.94;58.08
7052;BME280;3567;52.444;13.556;2023-06-01T09:59:24;101379.88;;;19.01;57.04
7052;BME280;3567;52.444;13.556;2023-06-01T10:01:52;101371.97;;;18.89;59.05
7052;BME280;3567;52.444;13.556;2023-06-01T10:04:28;101379.84;;;18.91;58.11
7052;BME280;3567;52.444;13.556;2023-06-01T10:06:57;101376.09;;;19.12;57.90
7052;BME280;3567;52.444;13.556;2023-06-01T10:09:24;101367.69;;;19.19;57.52
7052;BME280;3567;52.444;13.556;2023-06-01T10:11:53;101367.41;;;19.35;57.08
7052;BME280;3567;52.444;13.556;2023-06-01T10:14:20;101365.50;;;19.51;56.55
7052;BME280;3567;52.444;13.556;2023-06-01T10:16:52;101359.28;;;19.61;56.09
7052;BME280;3567;52.444;13.556;2023-06-01T10:19:21;101364.16;;;19.64;56.92
7052;BME280;3567;52.444;13.556;2023-06-01T10:21:47;101358.69;;;19.95;55.42
7052;BME280;3567;52.444;13.556;2023-06-01T10:24:22;101345.81;;;20.21;54.86
7052;BME280;3567;52.444;13.556;2023-06-01T10:29:23;101350.09;;;20.37;53.99
7052;BME280;3567;52.444;13.556;2023-06-01T10:31:49;101341.88;;;20.52;53.30
7052;BME280;3567;52.444;13.556;2023-06-01T10:34:36;101350.56;;;20.59;52.91
7052;BME280;3567;52.444;13.556;2023-06-01T10:39:29;101344.13;;;20.89;52.17
7052;BME280;3567;52.444;13.556;2023-06-01T10:41:56;101332.50;;;21.13;52.38
7052;BME280;3567;52.444;13.556;2023-06-01T10:47:03;101315.75;;;21.59;48.99
7052;BME280;3567;52.444;13.556;2023-06-01T10:52:34;101306.19;;;22.33;48.14
7052;BME280;3567;52.444;13.556;2023-06-01T10:57:36;101296.91;;;22.91;46.70
7052;BME280;3567;52.444;13.556;2023-06-01T11:00:21;101292.13;;;23.15;45.13
7052;BME280;3567;52.444;13.556;2023-06-01T11:02:58;101299.47;;;23.34;45.55
7052;BME280;3567;52.444;13.556;2023-06-01T11:05:47;101286.13;;;23.46;44.49
7052;BME280;3567;52.444;13.556;2023-06-01T11:13:17;101275.16;;;24.28;42.36
7052;BME280;3567;52.444;13.556;2023-06-01T11:21:17;101266.34;;;24.31;42.01
7052;BME280;3567;52.444;13.556;2023-06-01T11:23:44;101268.97;;;24.73;41.72
7052;BME280;3567;52.444;13.556;2023-06-01T11:26:16;101254.72;;;24.85;41.69
7052;BME280;3567;52.444;13.556;2023-06-01T11:28:42;101246.16;;;24.86;40.55
7052;BME280;3567;52.444;13.556;2023-06-01T11:31:09;101237.88;;;25.00;40.59
7052;BME280;3567;52.444;13.556;2023-06-01T11:33:38;101230.66;;;25.04;39.50
7052;BME280;3567;52.444;13.556;2023-06-01T11:36:04;101223.97;;;25.19;39.76
7052;BME280;3567;52.444;13.556;2023-06-01T11:38:33;101226.16;;;25.39;39.29
7052;BME280;3567;52.444;13.556;2023-06-01T11:41:01;101235.66;;;25.73;39.97
7052;BME280;3567;52.444;13.556;2023-06-01T11:43:30;101221.25;;;25.67;38.88
7052;BME280;3567;52.444;13.556;2023-06-01T11:46:03;101222.91;;;25.68;38.80
7052;BME280;3567;52.444;13.556;2023-06-01T11:48:28;101220.53;;;25.84;39.03
7052;BME280;3567;52.444;13.556;2023-06-01T11:50:54;101217.88;;;25.70;39.19
7052;BME280;3567;52.444;13.556;2023-06-01T11:53:24;101208.75;;;25.83;39.23
7052;BME280;3567;52.444;13.556;2023-06-01T11:55:50;101212.31;;;25.84;39.13
7052;BME280;3567;52.444;13.556;2023-06-01T11:58:26;101219.44;;;26.02;39.28
7052;BME280;3567;52.444;13.556;2023-06-01T12:00:53;101214.91;;;26.41;38.63
7052;BME280;3567;52.444;13.556;2023-06-01T12:03:19;101209.78;;;26.48;38.14
7052;BME280;3567;52.444;13.556;2023-06-01T12:05:45;101216.22;;;26.52;37.95
7052;BME280;3567;52.444;13.556;2023-06-01T12:08:29;101203.31;;;26.70;36.43
7052;BME280;3567;52.444;13.556;2023-06-01T12:10:55;101202.56;;;26.99;37.33
7052;BME280;3567;52.444;13.556;2023-06-01T12:13:21;101201.44;;;27.09;36.25
7052;BME280;3567;52.444;13.556;2023-06-01T12:15:51;101183.75;;;26.37;36.77
7052;BME280;3567;52.444;13.556;2023-06-01T12:18:28;101198.44;;;26.15;37.79
7052;BME280;3567;52.444;13.556;2023-06-01T12:20:54;101208.66;;;26.49;37.70
7052;BME280;3567;52.444;13.556;2023-06-01T12:23:20;101192.78;;;26.81;37.64
7052;BME280;3567;52.444;13.556;2023-06-01T12:28:18;101184.00;;;26.96;36.84
7052;BME280;3567;52.444;13.556;2023-06-01T12:30:44;101183.16;;;27.13;36.54
7052;BME280;3567;52.444;13.556;2023-06-01T12:33:31;101180.41;;;27.13;36.42
7052;BME280;3567;52.444;13.556;2023-06-01T12:35:56;101189.56;;;27.26;36.47
7052;BME280;3567;52.444;13.556;2023-06-01T12:38:21;101179.81;;;27.37;35.84
7052;BME280;3567;52.444;13.556;2023-06-01T12:41:08;101182.41;;;27.63;37.12
7052;BME280;3567;52.444;13.556;2023-06-01T12:43:35;101178.91;;;27.83;35.94
7052;BME280;3567;52.444;13.556;2023-06-01T12:46:01;101167.25;;;28.07;35.73
7052;BME280;3567;52.444;13.556;2023-06-01T12:48:33;101164.53;;;28.19;34.44
7052;BME280;3567;52.444;13.556;2023-06-01T12:50:59;101157.03;;;27.87;34.17
7052;BME280;3567;52.444;13.556;2023-06-01T12:53:24;101151.94;;;27.77;35.31
7052;BME280;3567;52.444;13.556;2023-06-01T12:55:50;101149.78;;;27.53;35.33
7052;BME280;3567;52.444;13.556;2023-06-01T12:58:15;101157.00;;;27.36;35.83
7052;BME280;3567;52.444;13.556;2023-06-01T13:00:40;101159.13;;;27.60;35.96
7052;BME280;3567;52.444;13.556;2023-06-01T13:03:06;101160.53;;;27.75;35.03
7052;BME280;3567;52.444;13.556;2023-06-01T13:05:32;101159.03;;;27.48;35.67
7052;BME280;3567;52.444;13.556;2023-06-01T13:07:58;101163.41;;;27.49;35.58
7052;BME280;3567;52.444;13.556;2023-06-01T13:10:25;101159.13;;;27.60;35.07
7052;BME280;3567;52.444;13.556;2023-06-01T13:12:50;101157.72;;;27.54;35.24
7052;BME280;3567;52.444;13.556;2023-06-01T13:15:16;101161.53;;;27.71;35.16
7052;BME280;3567;52.444;13.556;2023-06-01T13:17:41;101160.75;;;27.61;35.57
7052;BME280;3567;52.444;13.556;2023-06-01T13:20:07;101160.75;;;27.61;34.72
7052;BME280;3567;52.444;13.556;2023-06-01T13:22:32;101146.22;;;27.52;34.93
7052;BME280;3567;52.444;13.556;2023-06-01T13:24:58;101139.88;;;27.31;34.84
7052;BME280;3567;52.444;13.556;2023-06-01T13:27:23;101146.50;;;26.83;35.99
7052;BME280;3567;52.444;13.556;2023-06-01T13:29:49;101147.22;;;26.62;35.97
7052;BME280;3567;52.444;13.556;2023-06-01T13:32:15;101144.09;;;26.81;35.91
7052;BME280;3567;52.444;13.556;2023-06-01T13:34:40;101143.84;;;27.12;35.97